createdAt,value
2023-04-28T00:01:42.170Z,10.55
2023-04-28T00:04:09.537Z,10.68
2023-04-28T00:06:37.391Z,11.90
2023-04-28T00:09:04.351Z,10.30
2023-04-28T00:11:31.462Z,10.55
2023-04-28T00:13:58.440Z,10.43
2023-04-28T00:16:25.471Z,11.20
2023-04-28T00:18:52.944Z,11.02
2023-04-28T00:21:19.907Z,11.30
2023-04-28T00:23:46.902Z,10.50
2023-04-28T00:26:14.107Z,10.27
2023-04-28T00:28:43.427Z,11.68
2023-04-28T00:31:16.159Z,10.45
2023-04-28T00:33:44.207Z,10.77
2023-04-28T00:36:11.668Z,11.52
2023-04-28T00:38:38.831Z,10.85
2023-04-28T00:41:05.907Z,11.15
2023-04-28T00:43:43.639Z,12.63
2023-04-28T00:46:12.096Z,11.48
2023-04-28T00:48:39.206Z,11.77
2023-04-28T00:51:06.824Z,10.85
2023-04-28T00:53:34.229Z,11.88
2023-04-28T00:56:01.234Z,12.02
2023-04-28T00:58:29.895Z,10.88
2023-04-28T01:01:08.256Z,11.20
2023-04-28T01:03:38.207Z,11.02
2023-04-28T01:06:07.165Z,10.32
2023-04-28T01:08:37.590Z,11.95
2023-04-28T01:11:07.327Z,12.15
2023-04-28T01:13:59.562Z,11.32
2023-04-28T01:16:28.842Z,10.68
2023-04-28T01:18:56.738Z,10.52
2023-04-28T01:21:41.914Z,11.07
2023-04-28T01:24:26.878Z,10.48
2023-04-28T01:26:56.426Z,10.70
2023-04-28T01:29:23.340Z,11.30
2023-04-28T01:31:52.054Z,12.07
2023-04-28T01:34:19.180Z,11.68
2023-04-28T01:36:46.264Z,11.23
2023-04-28T01:39:13.966Z,10.80
2023-04-28T01:41:42.857Z,12.13
2023-04-28T01:44:09.792Z,11.32
2023-04-28T01:46:37.026Z,11.43
2023-04-28T01:49:04.146Z,11.23
2023-04-28T01:51:31.363Z,11.57
2023-04-28T01:53:58.344Z,11.13
2023-04-28T01:56:25.637Z,12.15
2023-04-28T01:58:55.172Z,11.60
2023-04-28T02:01:22.408Z,11.15
2023-04-28T02:03:50.815Z,10.73
2023-04-28T02:06:18.125Z,10.98
2023-04-28T02:08:45.083Z,11.00
2023-04-28T02:11:13.327Z,11.20
2023-04-28T02:13:41.739Z,10.45
2023-04-28T02:16:08.815Z,10.05
2023-04-28T02:18:36.401Z,10.90
2023-04-28T02:21:11.587Z,10.52
2023-04-28T02:23:39.901Z,11.27
2023-04-28T02:26:07.016Z,10.40
2023-04-28T02:28:34.038Z,10.68
2023-04-28T02:31:11.594Z,10.23
2023-04-28T02:33:38.854Z,10.40
2023-04-28T02:36:07.085Z,10.40
2023-04-28T02:38:34.693Z,10.60
2023-04-28T02:41:04.953Z,10.90
2023-04-28T02:43:32.655Z,10.48
2023-04-28T02:45:59.969Z,10.55
2023-04-28T02:48:27.407Z,11.18
2023-04-28T02:50:54.568Z,9.93
2023-04-28T02:53:22.642Z,9.98
2023-04-28T02:55:50.274Z,10.68
2023-04-28T02:58:18.425Z,10.60
2023-04-28T03:00:46.858Z,9.60
2023-04-28T03:03:14.512Z,10.15
2023-04-28T03:05:41.754Z,8.90
2023-04-28T03:08:08.689Z,9.02
2023-04-28T03:10:35.955Z,8.93
2023-04-28T03:13:03.967Z,8.80
2023-04-28T03:15:31.153Z,10.25
2023-04-28T03:17:58.527Z,9.43
2023-04-28T03:20:25.695Z,9.07
2023-04-28T03:22:52.821Z,9.05
2023-04-28T03:25:20.023Z,8.80
2023-04-28T03:27:49.644Z,8.18
2023-04-28T03:30:16.699Z,8.50
2023-04-28T03:32:43.718Z,8.05
2023-04-28T03:35:10.962Z,8.75
2023-04-28T03:37:39.398Z,9.20
2023-04-28T03:40:07.528Z,7.65
2023-04-28T03:45:27.414Z,8.07
2023-04-28T03:47:54.600Z,8.10
2023-04-28T03:50:26.125Z,8.23
2023-04-28T03:52:54.348Z,7.43
2023-04-28T03:55:21.594Z,7.68
2023-04-28T03:57:48.774Z,7.90
2023-04-28T04:00:15.898Z,7.40
2023-04-28T04:02:43.465Z,7.55
2023-04-28T04:05:10.852Z,7.57
2023-04-28T04:07:37.961Z,8.15
2023-04-28T04:10:06.163Z,8.25
2023-04-28T04:12:34.854Z,7.55
2023-04-28T04:15:01.950Z,7.40
2023-04-28T04:17:32.056Z,7.03
2023-04-28T04:19:59.037Z,8.35
2023-04-28T04:22:27.288Z,7.60
2023-04-28T04:24:57.098Z,7.80
2023-04-28T04:27:26.240Z,7.63
2023-04-28T04:29:54.088Z,8.02
2023-04-28T04:32:21.033Z,7.85
2023-04-28T04:34:48.515Z,8.40
2023-04-28T04:37:15.433Z,8.65
2023-04-28T04:39:48.682Z,8.93
2023-04-28T04:42:24.747Z,8.38
2023-04-28T04:45:28.364Z,8.93
2023-04-28T04:47:56.393Z,8.60
2023-04-28T04:50:23.760Z,8.65
2023-04-28T04:52:50.783Z,8.23
2023-04-28T04:55:18.019Z,8.80
2023-04-28T04:57:45.114Z,9.27
2023-04-28T05:00:26.050Z,8.68
2023-04-28T05:02:54.101Z,8.68
2023-04-28T05:05:22.873Z,8.77
2023-04-28T05:08:02.642Z,9.23
2023-04-28T05:10:29.876Z,8.93
2023-04-28T05:12:57.371Z,8.82
2023-04-28T05:15:24.822Z,7.93
2023-04-28T05:18:25.070Z,9.00
2023-04-28T05:20:55.047Z,8.50
2023-04-28T05:23:22.296Z,9.20
2023-04-28T05:25:51.648Z,8.98
2023-04-28T05:28:21.292Z,9.27
2023-04-28T05:30:50.855Z,9.57
2023-04-28T05:33:17.804Z,10.63
2023-04-28T05:35:46.530Z,10.40
2023-04-28T05:38:19.615Z,10.91
2023-04-28T05:40:48.419Z,10.52
2023-04-28T05:43:15.384Z,10.45
2023-04-28T05:45:43.345Z,11.20
2023-04-28T05:48:10.919Z,10.95
2023-04-28T05:50:39.281Z,11.48
2023-04-28T05:53:07.658Z,9.52
2023-04-28T05:55:36.512Z,10.15
2023-04-28T05:58:04.504Z,10.82
2023-04-28T06:00:34.364Z,10.27
2023-04-28T06:03:02.366Z,11.10
2023-04-28T06:05:30.170Z,11.40
2023-04-28T06:07:57.528Z,11.35
2023-04-28T06:10:26.382Z,11.20
2023-04-28T06:12:53.624Z,8.57
2023-04-28T06:15:20.641Z,9.73
2023-04-28T06:17:48.212Z,9.68
2023-04-28T06:20:16.722Z,7.60
2023-04-28T06:22:44.284Z,8.02
2023-04-28T06:25:12.018Z,7.93
2023-04-28T06:27:44.564Z,6.38
2023-04-28T06:30:19.572Z,7.20
2023-04-28T06:32:46.872Z,5.72
2023-04-28T06:35:14.872Z,5.45
2023-04-28T06:37:42.033Z,5.88
2023-04-28T06:40:10.518Z,5.60
2023-04-28T06:42:41.091Z,5.70
2023-04-28T06:45:12.169Z,5.70
2023-04-28T06:47:40.764Z,6.07
2023-04-28T06:50:09.883Z,5.57
2023-04-28T06:52:39.728Z,5.30
2023-04-28T06:55:09.577Z,5.55
2023-04-28T06:57:38.351Z,5.95
2023-04-28T07:00:06.538Z,5.32
2023-04-28T07:02:35.307Z,5.30
2023-04-28T07:05:03.768Z,6.28
2023-04-28T07:07:32.332Z,6.25
2023-04-28T07:10:00.658Z,6.25
2023-04-28T07:12:28.056Z,6.07
2023-04-28T07:14:56.043Z,6.13
2023-04-28T07:17:23.479Z,5.80
2023-04-28T07:19:51.192Z,5.05
2023-04-28T07:22:18.300Z,5.65
2023-04-28T07:24:45.624Z,5.50
2023-04-28T07:27:12.944Z,5.78
2023-04-28T07:29:40.202Z,5.30
2023-04-28T07:32:10.691Z,5.60
2023-04-28T07:34:38.412Z,5.50
2023-04-28T07:37:07.034Z,5.28
2023-04-28T07:39:35.350Z,5.55
2023-04-28T07:42:03.473Z,5.57
2023-04-28T07:44:31.958Z,5.75
2023-04-28T07:47:05.805Z,5.70
2023-04-28T07:49:32.733Z,5.50
2023-04-28T07:51:59.722Z,6.25
2023-04-28T07:54:26.691Z,5.80
2023-04-28T07:56:53.725Z,6.20
2023-04-28T07:59:21.017Z,7.10
2023-04-28T08:01:47.993Z,6.32
2023-04-28T08:04:15.546Z,6.63
2023-04-28T08:06:42.930Z,6.95
2023-04-28T08:09:09.987Z,7.00
2023-04-28T08:11:36.988Z,6.97
2023-04-28T08:14:04.216Z,7.40
2023-04-28T08:16:32.033Z,7.07
2023-04-28T08:19:00.538Z,7.72
2023-04-28T08:21:28.018Z,8.70
2023-04-28T08:23:55.389Z,8.05
2023-04-28T08:26:24.762Z,7.70
2023-04-28T08:28:52.905Z,8.95
2023-04-28T08:31:19.946Z,9.82
2023-04-28T08:33:50.164Z,9.10
2023-04-28T08:36:18.405Z,9.30
2023-04-28T08:38:46.039Z,8.68
2023-04-28T08:41:16.533Z,9.85
2023-04-28T08:43:43.658Z,9.63
2023-04-28T08:46:11.097Z,9.68
2023-04-28T08:48:43.825Z,17.80
2023-04-28T08:51:17.040Z,10.20
2023-04-28T08:54:15.032Z,8.90
2023-04-28T08:56:39.050Z,9.80
2023-04-28T08:59:06.305Z,9.38
2023-04-28T09:01:33.472Z,9.18
2023-04-28T09:04:14.239Z,9.43
2023-04-28T09:06:41.790Z,9.55
2023-04-28T09:09:34.252Z,9.43
2023-04-28T09:12:05.054Z,9.23
2023-04-28T09:14:36.408Z,9.70
2023-04-28T09:17:11.116Z,9.73
2023-04-28T09:19:39.443Z,9.63
2023-04-28T09:22:24.048Z,9.88
2023-04-28T09:24:54.077Z,9.02
2023-04-28T09:27:28.265Z,9.30
2023-04-28T09:29:55.584Z,9.27
2023-04-28T09:32:24.827Z,8.70
2023-04-28T09:34:58.556Z,8.88
2023-04-28T09:37:27.616Z,9.00
2023-04-28T09:39:55.381Z,8.73
2023-04-28T09:42:39.975Z,8.32
2023-04-28T09:45:09.470Z,8.63
2023-04-28T09:47:49.113Z,9.32
2023-04-28T09:50:18.647Z,8.80
2023-04-28T09:52:57.423Z,9.32
2023-04-28T09:55:26.002Z,8.90
2023-04-28T09:57:55.264Z,8.50
2023-04-28T10:00:23.683Z,9.57
2023-04-28T10:02:52.085Z,9.38
2023-04-28T10:05:22.149Z,9.20
2023-04-28T10:07:50.457Z,10.18
2023-04-28T10:10:17.996Z,8.85
2023-04-28T10:12:45.933Z,10.80
2023-04-28T10:15:13.683Z,12.07
2023-04-28T10:17:41.027Z,16.38
2023-04-28T10:20:09.022Z,17.10
2023-04-28T10:23:13.664Z,15.00
2023-04-28T10:25:42.910Z,13.85
2023-04-28T10:28:10.568Z,13.27
2023-04-28T10:30:38.197Z,14.07
2023-04-28T10:33:14.940Z,13.27
2023-04-28T10:35:46.758Z,14.70
2023-04-28T10:38:16.167Z,14.57
2023-04-28T10:41:01.840Z,14.05
2023-04-28T10:43:40.103Z,14.95
2023-04-28T10:46:11.577Z,15.32
2023-04-28T10:48:47.463Z,14.57
2023-04-28T10:51:14.663Z,15.70
2023-04-28T10:53:45.043Z,16.08
2023-04-28T10:56:27.042Z,12.93
2023-04-28T10:59:00.579Z,14.10
2023-04-28T11:01:35.596Z,13.82
2023-04-28T11:04:17.121Z,13.55
2023-04-28T11:07:07.837Z,11.52
2023-04-28T11:09:34.764Z,12.15
2023-04-28T11:12:06.018Z,12.15
2023-04-28T11:14:35.267Z,15.10
2023-04-28T11:17:05.591Z,18.58
2023-04-28T11:19:46.671Z,20.88
2023-04-28T11:22:19.560Z,22.52
2023-04-28T11:25:01.426Z,24.58
2023-04-28T11:30:01.848Z,19.27
2023-04-28T11:32:35.826Z,17.02
2023-04-28T11:35:09.836Z,13.07
2023-04-28T11:37:37.068Z,11.32
2023-04-28T11:40:13.964Z,11.32
2023-04-28T11:42:48.712Z,11.63
2023-04-28T11:45:16.012Z,13.68
2023-04-28T11:47:42.971Z,12.15
2023-04-28T11:50:10.120Z,12.23
2023-04-28T11:52:37.483Z,11.85
2023-04-28T11:55:05.006Z,10.65
2023-04-28T11:57:32.711Z,10.30
2023-04-28T12:00:21.932Z,10.13
2023-04-28T12:02:49.649Z,11.27
2023-04-28T12:05:17.208Z,11.73
2023-04-28T12:07:45.820Z,10.63
2023-04-28T12:10:16.932Z,10.75
2023-04-28T12:12:52.352Z,10.23
2023-04-28T12:15:22.757Z,7.93
2023-04-28T12:17:51.344Z,7.82
2023-04-28T12:20:38.163Z,7.57
2023-04-28T12:23:06.272Z,7.13
2023-04-28T12:25:35.438Z,7.50
2023-04-28T12:28:10.929Z,7.60
2023-04-28T12:30:39.258Z,7.93
2023-04-28T12:33:06.358Z,7.80
2023-04-28T12:35:33.784Z,7.47
2023-04-28T12:38:00.831Z,7.80
2023-04-28T12:40:28.003Z,7.00
2023-04-28T12:42:55.295Z,7.43
2023-04-28T12:45:22.647Z,7.40
2023-04-28T12:47:50.656Z,7.85
2023-04-28T12:50:17.744Z,7.35
2023-04-28T12:52:45.063Z,7.35
2023-04-28T12:55:11.984Z,7.00
2023-04-28T12:57:39.799Z,6.72
2023-04-28T13:00:08.425Z,6.55
2023-04-28T13:02:38.432Z,7.00
2023-04-28T13:05:06.624Z,7.25
2023-04-28T13:07:34.558Z,6.60
2023-04-28T13:10:01.564Z,5.03
2023-04-28T13:12:30.777Z,4.95
2023-04-28T13:14:57.723Z,5.40
2023-04-28T13:17:24.873Z,4.60
2023-04-28T13:19:51.943Z,4.80
2023-04-28T13:22:19.631Z,4.80
2023-04-28T13:24:46.956Z,4.55
2023-04-28T13:27:14.236Z,4.88
2023-04-28T13:29:41.485Z,4.55
2023-04-28T13:32:08.892Z,4.35
2023-04-28T13:34:37.822Z,4.22
2023-04-28T13:37:05.418Z,4.68
2023-04-28T13:39:32.711Z,4.40
2023-04-28T13:42:00.333Z,3.92
2023-04-28T13:44:27.363Z,4.50
2023-04-28T13:46:54.857Z,4.22
2023-04-28T13:49:23.848Z,3.75
2023-04-28T13:51:50.797Z,3.65
2023-04-28T13:54:17.762Z,3.30
2023-04-28T13:56:44.700Z,3.17
2023-04-28T13:59:11.610Z,3.00
2023-04-28T14:01:38.922Z,3.00
2023-04-28T14:04:06.282Z,3.63
2023-04-28T14:06:34.733Z,3.67
2023-04-28T14:09:02.849Z,3.10
2023-04-28T14:11:29.885Z,3.15
2023-04-28T14:13:58.166Z,3.00
2023-04-28T14:16:25.471Z,3.13
2023-04-28T14:18:53.100Z,3.10
2023-04-28T14:21:20.233Z,2.72
2023-04-28T14:23:47.612Z,3.22
2023-04-28T14:26:14.642Z,2.92
2023-04-28T14:28:42.415Z,2.40
2023-04-28T14:31:09.788Z,2.53
2023-04-28T14:33:37.217Z,2.47
2023-04-28T14:36:05.544Z,2.50
2023-04-28T14:38:32.691Z,2.10
2023-04-28T14:40:59.717Z,2.75
2023-04-28T14:43:27.187Z,2.20
2023-04-28T14:45:54.682Z,2.70
2023-04-28T14:48:21.920Z,3.20
2023-04-28T14:50:49.086Z,2.22
2023-04-28T14:53:16.222Z,2.33
2023-04-28T14:55:43.655Z,2.15
2023-04-28T14:58:10.779Z,1.88
2023-04-28T15:00:38.156Z,2.42
2023-04-28T15:03:05.404Z,2.00
2023-04-28T15:05:33.012Z,2.10
2023-04-28T15:08:00.042Z,1.90
2023-04-28T15:10:37.390Z,1.80
2023-04-28T15:13:04.852Z,1.83
2023-04-28T15:15:32.062Z,1.90
2023-04-28T15:18:01.147Z,1.60
2023-04-28T15:20:30.689Z,1.70
2023-04-28T15:22:58.168Z,1.35
2023-04-28T15:25:26.338Z,1.50
2023-04-28T15:27:53.280Z,1.42
2023-04-28T15:30:20.360Z,1.48
2023-04-28T15:32:49.389Z,2.05
2023-04-28T15:35:16.738Z,1.63
2023-04-28T15:37:47.700Z,1.60
2023-04-28T15:40:17.040Z,1.90
2023-04-28T15:42:49.123Z,1.60
2023-04-28T15:45:18.659Z,1.58
2023-04-28T15:47:47.388Z,1.50
2023-04-28T15:50:14.446Z,1.52
2023-04-28T15:52:46.127Z,1.70
2023-04-28T15:55:15.188Z,1.60
2023-04-28T15:57:42.917Z,1.90
2023-04-28T16:00:11.642Z,1.70
2023-04-28T16:02:39.403Z,2.25
2023-04-28T16:05:07.388Z,1.70
2023-04-28T16:07:41.164Z,1.75
2023-04-28T16:10:11.560Z,2.17
2023-04-28T16:12:40.525Z,1.88
2023-04-28T16:15:09.818Z,1.85
2023-04-28T16:17:38.780Z,1.80
2023-04-28T16:20:10.261Z,2.00
2023-04-28T16:22:38.998Z,2.10
2023-04-28T16:25:06.809Z,2.15
2023-04-28T16:27:35.655Z,2.30
2023-04-28T16:30:03.530Z,1.80
2023-04-28T16:32:33.745Z,1.55
2023-04-28T16:35:01.491Z,1.65
2023-04-28T16:37:31.324Z,1.50
2023-04-28T16:39:58.395Z,1.50
2023-04-28T16:42:25.848Z,1.60
2023-04-28T16:44:53.132Z,1.77
2023-04-28T16:47:21.182Z,1.83
2023-04-28T16:49:48.682Z,1.75
2023-04-28T16:52:16.709Z,1.80
2023-04-28T16:54:44.355Z,2.28
2023-04-28T16:57:11.515Z,1.65
2023-04-28T16:59:38.913Z,2.03
2023-04-28T17:02:06.751Z,2.00
2023-04-28T17:04:34.704Z,2.00
2023-04-28T17:07:04.699Z,1.65
2023-04-28T17:09:33.349Z,1.70
2023-04-28T17:12:03.792Z,1.90
2023-04-28T17:14:31.183Z,1.77
2023-04-28T17:16:58.198Z,1.80
2023-04-28T17:19:26.105Z,1.80
2023-04-28T17:21:55.462Z,1.90
2023-04-28T17:24:22.929Z,1.90
2023-04-28T17:26:50.146Z,1.85
2023-04-28T17:29:17.991Z,2.22
2023-04-28T17:31:45.834Z,1.90
2023-04-28T17:34:13.360Z,2.00
2023-04-28T17:36:41.077Z,2.10
2023-04-28T17:39:09.444Z,2.08
2023-04-28T17:41:36.680Z,1.70
2023-04-28T17:44:03.672Z,1.90
2023-04-28T17:46:30.920Z,1.98
2023-04-28T17:48:59.771Z,2.15
2023-04-28T17:51:27.965Z,2.30
2023-04-28T17:53:57.018Z,1.95
2023-04-28T17:56:24.264Z,2.00
2023-04-28T17:58:51.844Z,1.92
2023-04-28T18:01:19.079Z,2.20
2023-04-28T18:03:46.412Z,2.38
2023-04-28T18:06:14.045Z,2.20
2023-04-28T18:08:41.358Z,2.10
2023-04-28T18:11:10.151Z,2.35
2023-04-28T18:13:37.569Z,2.40
2023-04-28T18:16:05.312Z,2.55
2023-04-28T18:18:35.304Z,3.20
2023-04-28T18:21:03.590Z,2.50
2023-04-28T18:23:31.196Z,2.75
2023-04-28T18:25:58.570Z,2.28
2023-04-28T18:28:25.724Z,3.15
2023-04-28T18:30:52.632Z,2.47
2023-04-28T18:33:22.808Z,2.50
2023-04-28T18:36:01.946Z,2.33
2023-04-28T18:38:31.041Z,2.47
2023-04-28T18:40:58.411Z,2.70
2023-04-28T18:43:27.971Z,2.22
2023-04-28T18:45:54.931Z,2.30
2023-04-28T18:48:22.206Z,2.38
2023-04-28T18:50:49.349Z,2.60
2023-04-28T18:53:17.827Z,2.50
2023-04-28T18:55:44.970Z,2.35
2023-04-28T18:58:12.003Z,2.42
2023-04-28T19:00:39.324Z,2.72
2023-04-28T19:03:06.543Z,2.78
2023-04-28T19:05:34.531Z,2.75
2023-04-28T19:08:01.676Z,2.75
2023-04-28T19:10:28.762Z,3.13
2023-04-28T19:12:56.165Z,3.58
2023-04-28T19:15:23.584Z,2.95
2023-04-28T19:17:51.211Z,3.00
2023-04-28T19:20:18.297Z,3.20
2023-04-28T19:22:47.194Z,3.00
2023-04-28T19:25:16.697Z,2.90
2023-04-28T19:27:44.861Z,3.45
2023-04-28T19:30:13.646Z,3.90
2023-04-28T19:32:42.132Z,3.65
2023-04-28T19:35:09.861Z,3.70
2023-04-28T19:37:36.999Z,4.15
2023-04-28T19:40:07.627Z,4.57
2023-04-28T19:42:35.303Z,4.50
2023-04-28T19:45:02.728Z,4.60
2023-04-28T19:47:34.837Z,5.32
2023-04-28T19:50:02.165Z,5.47
2023-04-28T19:52:33.357Z,5.30
2023-04-28T19:55:09.319Z,5.50
2023-04-28T19:57:36.691Z,6.13
2023-04-28T20:00:04.497Z,6.07
2023-04-28T20:02:37.072Z,5.53
2023-04-28T20:05:04.440Z,5.85
2023-04-28T20:07:32.907Z,6.20
2023-04-28T20:10:01.798Z,5.95
2023-04-28T20:12:31.021Z,5.55
2023-04-28T20:15:00.697Z,5.75
2023-04-28T20:17:27.824Z,5.28
2023-04-28T20:19:55.285Z,5.95
2023-04-28T20:22:22.366Z,5.20
2023-04-28T20:24:49.331Z,5.32
2023-04-28T20:27:16.816Z,4.63
2023-04-28T20:29:47.369Z,4.65
2023-04-28T20:32:19.653Z,4.00
2023-04-28T20:34:46.733Z,4.80
2023-04-28T20:37:14.210Z,4.57
2023-04-28T20:39:41.371Z,4.47
2023-04-28T20:42:10.980Z,4.00
2023-04-28T20:44:53.395Z,4.10
2023-04-28T20:47:20.484Z,4.55
2023-04-28T20:49:47.637Z,3.85
2023-04-28T20:52:14.598Z,4.50
2023-04-28T20:54:43.747Z,4.55
2023-04-28T20:57:11.368Z,3.97
2023-04-28T20:59:38.395Z,4.15
2023-04-28T21:02:09.025Z,4.32
2023-04-28T21:04:38.830Z,4.40
2023-04-28T21:07:05.768Z,4.05
2023-04-28T21:09:40.851Z,4.18
2023-04-28T21:12:17.684Z,4.30
2023-04-28T21:14:45.303Z,4.47
2023-04-28T21:17:15.204Z,3.92
2023-04-28T21:19:42.761Z,4.63
2023-04-28T21:22:09.703Z,4.43
2023-04-28T21:24:36.974Z,4.38
2023-04-28T21:27:04.979Z,4.78
2023-04-28T21:29:32.030Z,4.13
2023-04-28T21:32:00.319Z,4.32
2023-04-28T21:34:27.766Z,4.07
2023-04-28T21:36:56.694Z,4.32
2023-04-28T21:39:23.948Z,4.38
2023-04-28T21:41:50.940Z,5.13
2023-04-28T21:44:17.894Z,4.60
2023-04-28T21:46:45.185Z,4.10
2023-04-28T21:49:13.185Z,4.53
2023-04-28T21:51:49.238Z,4.20
2023-04-28T21:54:16.343Z,4.40
2023-04-28T21:56:43.404Z,4.40
2023-04-28T21:59:10.598Z,4.38
2023-04-28T22:01:38.598Z,4.68
2023-04-28T22:04:08.994Z,4.40
2023-04-28T22:06:36.403Z,3.92
2023-04-28T22:09:04.576Z,4.38
2023-04-28T22:11:31.552Z,4.20
2023-04-28T22:13:58.456Z,4.32
2023-04-28T22:16:25.551Z,3.88
2023-04-28T22:18:52.712Z,3.75
2023-04-28T22:21:19.919Z,3.67
2023-04-28T22:23:47.419Z,3.58
2023-04-28T22:26:28.571Z,3.85
2023-04-28T22:28:55.761Z,3.60
2023-04-28T22:31:23.050Z,3.90
2023-04-28T22:33:50.018Z,3.55
2023-04-28T22:36:17.188Z,3.15
2023-04-28T22:38:44.283Z,2.70
2023-04-28T22:41:11.759Z,2.78
2023-04-28T22:43:39.079Z,2.83
2023-04-28T22:46:06.331Z,2.63
2023-04-28T22:48:36.149Z,2.72
2023-04-28T22:51:03.503Z,2.35
2023-04-28T22:53:30.603Z,2.80
2023-04-28T22:55:58.344Z,2.78
2023-04-28T22:58:27.459Z,2.45
2023-04-28T23:00:54.502Z,2.17
2023-04-28T23:03:21.774Z,2.65
2023-04-28T23:05:48.891Z,2.10
2023-04-28T23:08:16.441Z,2.40
2023-04-28T23:10:43.665Z,2.50
2023-04-28T23:13:10.576Z,2.40
2023-04-28T23:15:41.960Z,2.67
2023-04-28T23:18:09.029Z,2.78
2023-04-28T23:20:36.276Z,3.00
2023-04-28T23:23:03.398Z,3.30
2023-04-28T23:25:30.337Z,2.58
2023-04-28T23:27:57.259Z,2.85
2023-04-28T23:30:24.744Z,3.70
2023-04-28T23:32:51.780Z,3.50
2023-04-28T23:35:25.975Z,3.10
2023-04-28T23:38:01.816Z,3.08
2023-04-28T23:40:28.924Z,3.20
2023-04-28T23:42:56.522Z,3.20
2023-04-28T23:45:23.872Z,3.10
2023-04-28T23:47:51.380Z,3.15
2023-04-28T23:50:21.489Z,3.20
2023-04-28T23:52:48.658Z,3.33
2023-04-28T23:55:15.689Z,3.45
2023-04-28T23:57:42.955Z,3.17
